Time;durP1;ratioP1;P1;durP2;ratioP2;P2;SDS_P1;SDS_P2;PMS_P1;PMS_P2;Temp;Humidity;BMP_temperature;BMP_pressure;BME280_temperature;BME280_humidity;BME280_pressure;Samples;Min_cycle;Max_cycle;Signal;HPM_P1;HPM_P2
2022/05/29 00:02:02;;;;;;;8.63;2.40;;;10.50;99.90;;;;;;4889756;29;20044;-86
2022/05/29 00:04:28;;;;;;;6.30;2.05;;;10.50;99.90;;;;;;4885942;29;20044;-85
2022/05/29 00:06:56;;;;;;;6.40;1.90;;;10.50;99.90;;;;;;4857034;29;20049;-85
2022/05/29 00:09:41;;;;;;;5.53;1.90;;;10.50;99.90;;;;;;4880385;29;20080;-85
2022/05/29 00:12:08;;;;;;;6.07;2.15;;;10.50;99.90;;;;;;4897425;29;20116;-85
2022/05/29 00:14:35;;;;;;;11.68;2.35;;;10.50;99.90;;;;;;4884395;29;20045;-86
2022/05/29 00:17:02;;;;;;;5.57;2.00;;;10.50;99.90;;;;;;4886779;29;20040;-85
2022/05/29 00:19:27;;;;;;;6.95;2.00;;;10.50;99.90;;;;;;4884500;29;20048;-86
2022/05/29 00:21:54;;;;;;;9.70;2.50;;;10.50;99.90;;;;;;4888485;29;20059;-86
2022/05/29 00:24:20;;;;;;;5.72;2.03;;;10.50;99.90;;;;;;4879541;29;20397;-85
2022/05/29 00:26:46;;;;;;;8.48;1.83;;;10.50;99.90;;;;;;4887224;29;20052;-86
2022/05/29 00:29:11;;;;;;;3.78;1.85;;;10.50;99.90;;;;;;4870474;29;20072;-86
2022/05/29 00:31:37;;;;;;;5.88;1.98;;;10.50;99.90;;;;;;4881444;29;20520;-85
2022/05/29 00:34:03;;;;;;;4.68;1.90;;;10.50;99.90;;;;;;4868721;29;20051;-86
2022/05/29 00:36:33;;;;;;;7.68;2.28;;;10.50;99.90;;;;;;4873856;29;20051;-86
2022/05/29 00:38:59;;;;;;;7.55;1.83;;;10.50;99.90;;;;;;4872482;29;20128;-86
2022/05/29 00:41:32;;;;;;;9.32;2.10;;;10.50;99.90;;;;;;4880670;29;20104;-86
2022/05/29 00:44:28;;;;;;;6.80;1.83;;;10.50;99.90;;;;;;4864056;29;20075;-85
2022/05/29 00:46:58;;;;;;;5.80;2.10;;;10.50;99.90;;;;;;4849816;29;20049;-85
2022/05/29 00:49:32;;;;;;;5.20;2.13;;;10.50;99.90;;;;;;4885264;29;20063;-86
2022/05/29 00:52:13;;;;;;;7.43;2.17;;;10.50;99.90;;;;;;4910230;29;20079;-85
2022/05/29 00:54:43;;;;;;;7.13;2.10;;;10.50;99.90;;;;;;4904928;29;20048;-86
2022/05/29 00:57:12;;;;;;;7.60;2.65;;;10.50;99.90;;;;;;4906716;29;20043;-85
2022/05/29 00:59:38;;;;;;;6.13;2.58;;;10.40;99.90;;;;;;4878620;29;20123;-85
2022/05/29 01:02:04;;;;;;;9.25;2.10;;;10.40;99.90;;;;;;4893714;29;20126;-86
2022/05/29 01:04:32;;;;;;;5.50;2.35;;;10.40;99.90;;;;;;4885911;29;20044;-86
2022/05/29 01:07:03;;;;;;;7.75;2.00;;;10.50;99.90;;;;;;4894631;29;20051;-86
2022/05/29 01:09:30;;;;;;;5.47;2.20;;;10.50;99.90;;;;;;4908954;29;20096;-86
2022/05/29 01:12:00;;;;;;;7.45;2.25;;;10.50;99.90;;;;;;4897156;29;20098;-85
2022/05/29 01:14:40;;;;;;;6.75;2.50;;;10.50;99.90;;;;;;4893791;29;20071;-86
2022/05/29 01:17:32;;;;;;;6.88;2.17;;;10.50;99.90;;;;;;4888779;29;20115;-84
2022/05/29 01:20:04;;;;;;;6.97;2.53;;;10.50;99.90;;;;;;4893258;29;20119;-86
2022/05/29 01:22:51;;;;;;;10.50;2.42;;;10.50;99.90;;;;;;4904986;29;20127;-85
2022/05/29 01:25:28;;;;;;;7.47;2.35;;;10.50;99.90;;;;;;4898994;29;20048;-85
2022/05/29 01:28:06;;;;;;;10.82;2.65;;;10.50;99.90;;;;;;4890090;29;20488;-86
2022/05/29 01:30:41;;;;;;;9.80;2.63;;;10.50;99.90;;;;;;4898651;29;20052;-85
2022/05/29 01:33:33;;;;;;;9.68;2.58;;;10.50;99.90;;;;;;4913075;29;20043;-85
2022/05/29 01:36:05;;;;;;;12.95;3.13;;;10.50;99.90;;;;;;4882229;29;20079;-85
2022/05/29 01:38:49;;;;;;;9.40;2.90;;;10.40;99.90;;;;;;4896704;29;20040;-86
2022/05/29 01:41:21;;;;;;;11.25;3.10;;;10.40;99.90;;;;;;4883863;29;20404;-86
2022/05/29 01:43:58;;;;;;;12.00;3.45;;;10.40;99.90;;;;;;4888682;29;20076;-85
2022/05/29 01:46:30;;;;;;;12.23;2.70;;;10.30;99.90;;;;;;4895650;29;20056;-86
2022/05/29 01:49:13;;;;;;;7.80;2.75;;;10.80;99.90;;;;;;4901257;29;20107;-86
2022/05/29 01:51:57;;;;;;;12.63;2.97;;;10.30;99.90;;;;;;4900777;29;20058;-86
2022/05/29 01:54:30;;;;;;;9.68;3.00;;;10.20;99.90;;;;;;4895483;29;20048;-85
2022/05/29 01:57:07;;;;;;;10.70;2.80;;;10.20;99.90;;;;;;4900095;29;20076;-86
2022/05/29 01:59:41;;;;;;;12.52;3.35;;;10.20;99.90;;;;;;4887253;29;20044;-86
2022/05/29 02:02:10;;;;;;;10.18;2.88;;;10.30;99.90;;;;;;4885757;29;20036;-86
2022/05/29 02:04:40;;;;;;;10.68;3.08;;;10.20;99.90;;;;;;4890798;29;20396;-86
2022/05/29 02:10:08;;;;;;;12.10;3.10;;;10.20;99.90;;;;;;4897130;29;20112;-86
2022/05/29 02:12:37;;;;;;;12.50;2.65;;;10.30;99.90;;;;;;4891034;29;20508;-86
2022/05/29 02:15:11;;;;;;;14.13;2.95;;;10.30;99.90;;;;;;4903231;29;20058;-85
2022/05/29 02:17:40;;;;;;;10.50;2.92;;;10.30;99.90;;;;;;4900191;29;20103;-86
2022/05/29 02:20:20;;;;;;;9.55;2.95;;;10.20;99.90;;;;;;4889482;29;20465;-85
2022/05/29 02:22:50;;;;;;;10.15;2.72;;;10.30;99.90;;;;;;4906820;29;20048;-87
2022/05/29 02:25:19;;;;;;;10.55;2.70;;;10.30;99.90;;;;;;4902783;29;20056;-85
2022/05/29 02:27:45;;;;;;;9.48;2.63;;;10.20;99.90;;;;;;4894104;29;20044;-85
2022/05/29 02:30:12;;;;;;;11.38;2.70;;;10.20;99.90;;;;;;4908767;29;20045;-86
2022/05/29 02:32:47;;;;;;;8.20;2.45;;;10.20;99.90;;;;;;4898492;29;20099;-86
2022/05/29 02:35:21;;;;;;;11.32;2.25;;;10.20;99.90;;;;;;4886426;29;20048;-86
2022/05/29 02:37:59;;;;;;;10.25;2.65;;;10.20;99.90;;;;;;4895686;29;20045;-85
2022/05/29 02:41:02;;;;;;;11.52;2.55;;;10.10;99.90;;;;;;4895442;29;20049;-86
2022/05/29 02:43:33;;;;;;;12.38;2.58;;;10.10;99.90;;;;;;4893182;29;20044;-85
2022/05/29 02:46:11;;;;;;;11.50;2.97;;;10.10;99.90;;;;;;4885945;29;20493;-85
2022/05/29 02:48:42;;;;;;;10.10;2.50;;;10.10;99.90;;;;;;4900877;29;20818;-85
2022/05/29 02:51:46;;;;;;;10.73;2.33;;;10.10;99.90;;;;;;4901134;29;20401;-86
2022/05/29 02:54:19;;;;;;;9.65;2.92;;;10.10;99.90;;;;;;4882339;29;20049;-85
2022/05/29 02:56:45;;;;;;;8.98;2.72;;;10.10;99.90;;;;;;4885848;29;20048;-86
2022/05/29 02:59:11;;;;;;;8.90;2.70;;;10.10;99.90;;;;;;4900724;29;20104;-85
2022/05/29 03:01:50;;;;;;;8.65;2.65;;;10.10;99.90;;;;;;4909378;29;20516;-86
2022/05/29 03:04:25;;;;;;;12.80;3.03;;;10.10;99.90;;;;;;4903190;29;20044;-86
2022/05/29 03:06:57;;;;;;;11.32;2.95;;;10.10;99.90;;;;;;4897140;29;21036;-85
2022/05/29 03:09:51;;;;;;;12.25;2.45;;;10.10;99.90;;;;;;4901928;29;20044;-85
2022/05/29 03:12:24;;;;;;;6.70;2.83;;;10.10;99.90;;;;;;4891870;29;20418;-85
2022/05/29 03:15:03;;;;;;;9.32;2.95;;;10.30;99.90;;;;;;4901796;29;20048;-85
2022/05/29 03:17:58;;;;;;;7.45;2.50;;;10.10;99.90;;;;;;4895731;29;20059;-86
2022/05/29 03:20:32;;;;;;;9.10;2.50;;;10.10;99.90;;;;;;4892132;29;20048;-86
2022/05/29 03:23:24;;;;;;;9.40;2.42;;;10.10;99.90;;;;;;4902349;29;20087;-86
2022/05/29 03:25:55;;;;;;;11.20;2.83;;;10.10;99.90;;;;;;4883386;29;20084;-86
2022/05/29 03:28:33;;;;;;;10.00;2.38;;;10.10;99.90;;;;;;4896836;29;20118;-85
2022/05/29 03:31:04;;;;;;;13.38;2.88;;;10.10;99.90;;;;;;4901063;29;20037;-85
2022/05/29 03:33:30;;;;;;;9.43;2.92;;;10.10;99.90;;;;;;4903239;29;20091;-86
2022/05/29 03:35:55;;;;;;;13.82;3.33;;;10.10;99.90;;;;;;4897431;29;20447;-86
2022/05/29 03:38:22;;;;;;;12.43;2.83;;;10.10;99.90;;;;;;4889924;29;20066;-85
2022/05/29 03:40:49;;;;;;;8.20;2.92;;;10.40;99.90;;;;;;4891722;29;20414;-85
2022/05/29 03:43:15;;;;;;;8.75;2.55;;;10.10;99.90;;;;;;4902382;29;20063;-85
2022/05/29 03:45:40;;;;;;;12.32;2.92;;;10.10;99.90;;;;;;4897406;29;20052;-86
2022/05/29 03:48:07;;;;;;;7.95;2.40;;;10.10;99.90;;;;;;4887642;29;20047;-86
2022/05/29 03:50:34;;;;;;;12.43;2.80;;;10.00;99.90;;;;;;4902650;29;20056;-85
2022/05/29 03:53:01;;;;;;;11.02;2.60;;;10.00;99.90;;;;;;4908257;29;20068;-85
2022/05/29 03:55:27;;;;;;;11.07;2.88;;;10.70;99.90;;;;;;4895967;29;20060;-86
2022/05/29 03:57:53;;;;;;;12.35;3.08;;;10.00;99.90;;;;;;4897309;29;20040;-86
2022/05/29 04:00:21;;;;;;;11.88;3.10;;;10.00;99.90;;;;;;4876938;29;20055;-85
2022/05/29 04:02:47;;;;;;;6.53;2.58;;;10.00;99.90;;;;;;4910987;29;20400;-86
2022/05/29 04:05:15;;;;;;;10.55;3.38;;;10.00;99.90;;;;;;4896448;29;20093;-85
2022/05/29 04:13:31;;;;;;;9.40;2.40;;;10.00;99.90;;;;;;4895456;29;20442;-85
2022/05/29 04:15:57;;;;;;;10.63;2.88;;;10.00;99.90;;;;;;4903034;29;20393;-86
2022/05/29 04:18:23;;;;;;;9.25;2.75;;;10.00;99.90;;;;;;4891496;29;20064;-86
2022/05/29 04:20:52;;;;;;;7.57;2.78;;;10.00;99.90;;;;;;4903535;29;20072;-86
2022/05/29 04:23:17;;;;;;;8.98;2.85;;;10.00;99.90;;;;;;4897170;29;20080;-85
2022/05/29 04:25:44;;;;;;;8.70;2.75;;;10.00;99.90;;;;;;4890327;29;20040;-85
2022/05/29 04:28:10;;;;;;;11.55;3.47;;;9.90;99.90;;;;;;4937501;29;20040;-85
2022/05/29 04:30:36;;;;;;;9.15;2.83;;;10.00;99.90;;;;;;4912892;29;20047;-84
2022/05/29 04:33:02;;;;;;;6.45;2.53;;;9.90;99.90;;;;;;4879900;29;20050;-85
2022/05/29 04:35:28;;;;;;;8.30;2.83;;;10.00;99.90;;;;;;4900009;29;20058;-85
2022/05/29 04:37:54;;;;;;;10.15;3.17;;;9.90;99.90;;;;;;4901496;29;20040;-85
2022/05/29 04:40:20;;;;;;;8.98;2.80;;;10.00;99.90;;;;;;4903234;29;20123;-85
2022/05/29 04:42:46;;;;;;;8.20;2.63;;;10.00;99.90;;;;;;4885771;29;20040;-85
2022/05/29 04:45:12;;;;;;;11.70;2.67;;;10.10;99.90;;;;;;4906505;29;20052;-85
2022/05/29 04:47:37;;;;;;;11.48;3.03;;;10.10;99.90;;;;;;4889054;29;20032;-85
2022/05/29 04:50:04;;;;;;;10.20;3.17;;;10.10;99.90;;;;;;4894037;29;20063;-84
2022/05/29 04:52:31;;;;;;;9.75;2.40;;;10.20;99.90;;;;;;4899389;29;20055;-86
2022/05/29 04:54:56;;;;;;;11.23;2.90;;;10.20;99.90;;;;;;4902932;29;20040;-85
2022/05/29 04:57:22;;;;;;;8.10;2.67;;;10.20;99.90;;;;;;4889705;29;20040;-86
2022/05/29 04:59:48;;;;;;;8.07;2.55;;;10.30;99.90;;;;;;4902829;29;20067;-84
2022/05/29 05:02:14;;;;;;;10.93;2.88;;;10.30;99.90;;;;;;4888662;29;20052;-84
2022/05/29 05:04:39;;;;;;;10.57;2.70;;;10.40;99.90;;;;;;4893874;29;20036;-85
2022/05/29 05:07:05;;;;;;;8.35;2.55;;;10.40;99.90;;;;;;4903660;29;20549;-85
2022/05/29 05:09:31;;;;;;;8.07;2.63;;;10.30;99.90;;;;;;4903068;29;20453;-86
2022/05/29 05:11:57;;;;;;;10.57;2.42;;;10.40;99.90;;;;;;4872024;29;20119;-85
2022/05/29 05:14:25;;;;;;;6.15;2.38;;;10.30;99.90;;;;;;4902032;29;20051;-85
2022/05/29 05:16:53;;;;;;;8.13;2.13;;;10.40;99.90;;;;;;4893278;29;20119;-85
2022/05/29 05:19:19;;;;;;;8.73;2.60;;;10.40;99.90;;;;;;4899425;29;20388;-85
2022/05/29 05:21:44;;;;;;;9.70;2.67;;;10.50;99.90;;;;;;4873781;29;20040;-86
2022/05/29 05:24:11;;;;;;;11.23;2.58;;;10.50;99.90;;;;;;4904558;29;20036;-86
2022/05/29 05:26:37;;;;;;;9.23;2.60;;;10.50;99.90;;;;;;4867931;29;20048;-85
2022/05/29 05:29:04;;;;;;;11.98;2.78;;;10.50;99.90;;;;;;4891391;29;20132;-85
2022/05/29 05:31:29;;;;;;;8.48;2.50;;;10.60;99.90;;;;;;4901919;29;20489;-85
2022/05/29 05:33:55;;;;;;;7.88;2.75;;;10.60;99.90;;;;;;4889813;29;20119;-85
2022/05/29 05:36:21;;;;;;;9.43;2.85;;;10.60;99.90;;;;;;4869871;29;20505;-84
2022/05/29 05:38:47;;;;;;;7.72;2.40;;;10.60;99.90;;;;;;4895237;29;20036;-85
2022/05/29 05:41:14;;;;;;;6.28;2.50;;;10.90;99.90;;;;;;4884180;29;20489;-85
2022/05/29 05:43:40;;;;;;;5.90;2.35;;;10.60;99.90;;;;;;4886211;29;20080;-85
2022/05/29 05:46:12;;;;;;;11.57;2.55;;;10.60;99.90;;;;;;4900525;29;20116;-85
2022/05/29 05:48:39;;;;;;;9.48;2.50;;;10.70;99.90;;;;;;4879607;29;20486;-85
2022/05/29 05:51:09;;;;;;;12.55;2.58;;;10.70;99.90;;;;;;4897266;29;20108;-85
2022/05/29 05:53:36;;;;;;;6.18;2.30;;;10.80;99.90;;;;;;4895037;29;20058;-84
2022/05/29 05:56:13;;;;;;;9.07;2.10;;;10.70;99.90;;;;;;4906979;29;20052;-86
2022/05/29 05:58:41;;;;;;;9.93;2.22;;;10.80;99.90;;;;;;4895195;29;20048;-85
2022/05/29 06:01:13;;;;;;;9.00;1.80;;;10.80;99.90;;;;;;4908183;29;20132;-84
2022/05/29 06:03:39;;;;;;;8.75;1.88;;;10.90;99.90;;;;;;4898282;29;20527;-85
2022/05/29 06:06:05;;;;;;;11.45;2.85;;;10.90;99.90;;;;;;4913771;29;20067;-85
2022/05/29 06:08:31;;;;;;;9.10;1.98;;;11.00;99.90;;;;;;4898959;29;20493;-85
2022/05/29 06:10:58;;;;;;;6.38;1.90;;;11.00;99.90;;;;;;4893278;29;20036;-85
2022/05/29 06:13:23;;;;;;;8.82;2.10;;;11.10;99.90;;;;;;4900991;29;20067;-85
2022/05/29 06:15:49;;;;;;;8.23;2.10;;;11.20;99.90;;;;;;4902039;29;20186;-86
2022/05/29 06:18:17;;;;;;;7.80;2.03;;;11.30;99.90;;;;;;4876449;29;20055;-85
2022/05/29 06:20:45;;;;;;;8.35;1.67;;;11.30;99.90;;;;;;4889872;29;20040;-86
2022/05/29 06:23:12;;;;;;;9.77;2.22;;;11.40;99.90;;;;;;4879350;29;20047;-85
2022/05/29 06:25:41;;;;;;;11.48;1.98;;;11.50;99.90;;;;;;4900466;29;20118;-85
2022/05/29 06:28:08;;;;;;;9.20;2.15;;;11.60;99.90;;;;;;4890497;29;20103;-86
2022/05/29 06:30:35;;;;;;;8.60;2.00;;;11.70;99.90;;;;;;4891478;29;20727;-85
2022/05/29 06:33:01;;;;;;;12.23;2.40;;;11.70;99.90;;;;;;4903292;29;20047;-85
2022/05/29 06:35:28;;;;;;;8.35;2.15;;;11.80;99.90;;;;;;4900492;29;20048;-85
2022/05/29 06:37:54;;;;;;;8.75;2.22;;;11.90;99.90;;;;;;4892501;29;20039;-85
2022/05/29 06:40:20;;;;;;;8.27;2.22;;;11.90;99.90;;;;;;4891755;29;20047;-85
2022/05/29 06:42:46;;;;;;;11.18;2.63;;;11.90;99.90;;;;;;4897947;29;20522;-86
2022/05/29 06:45:12;;;;;;;11.35;2.42;;;11.90;99.90;;;;;;4884368;29;20048;-85
2022/05/29 06:47:39;;;;;;;12.35;2.35;;;11.90;99.90;;;;;;4885119;29;20096;-85
2022/05/29 06:50:06;;;;;;;9.73;2.30;;;12.00;99.90;;;;;;4883277;29;20129;-85
2022/05/29 06:52:32;;;;;;;8.50;2.05;;;12.00;99.90;;;;;;4892251;29;20111;-86
2022/05/29 06:54:59;;;;;;;10.73;2.38;;;11.90;99.90;;;;;;4906524;29;20048;-85
2022/05/29 06:57:39;;;;;;;9.25;2.10;;;11.90;99.90;;;;;;4901997;29;20492;-85
2022/05/29 07:08:24;;;;;;;8.32;1.98;;;11.60;99.90;;;;;;4896988;29;20052;-86
2022/05/29 07:10:49;;;;;;;6.75;1.98;;;11.50;99.90;;;;;;4890874;29;20048;-86
2022/05/29 07:13:15;;;;;;;11.55;2.10;;;11.50;99.90;;;;;;4899535;29;20052;-86
2022/05/29 07:15:41;;;;;;;8.95;2.00;;;11.50;99.90;;;;;;4888777;29;20047;-86
2022/05/29 07:18:06;;;;;;;10.05;2.38;;;11.50;99.90;;;;;;4888301;29;20048;-86
2022/05/29 07:20:35;;;;;;;11.57;2.70;;;11.50;99.90;;;;;;4871347;29;20099;-84
2022/05/29 07:23:01;;;;;;;12.63;2.38;;;11.50;99.90;;;;;;4893751;29;20044;-84
2022/05/29 07:25:27;;;;;;;10.68;2.67;;;11.60;99.90;;;;;;4893935;29;20040;-87
2022/05/29 07:27:52;;;;;;;13.00;2.25;;;11.70;99.90;;;;;;4904862;29;20040;-84
2022/05/29 07:30:18;;;;;;;10.05;1.92;;;11.70;99.90;;;;;;4886862;29;20047;-82
2022/05/29 07:32:44;;;;;;;10.20;1.95;;;11.80;99.90;;;;;;4903818;29;20528;-85
2022/05/29 07:35:10;;;;;;;11.55;2.13;;;11.80;99.90;;;;;;4886775;29;20088;-84
2022/05/29 07:37:37;;;;;;;13.02;1.88;;;11.90;99.90;;;;;;4888199;29;20102;-86
2022/05/29 07:40:03;;;;;;;13.38;2.42;;;12.00;99.90;;;;;;4886076;29;20119;-86
2022/05/29 07:45:13;;;;;;;12.88;2.15;;;12.00;99.90;;;;;;4867486;29;20131;-85
2022/05/29 07:47:42;;;;;;;11.32;2.15;;;12.00;99.90;;;;;;4888605;29;20482;-86
2022/05/29 07:50:15;;;;;;;8.63;1.63;;;12.10;99.90;;;;;;4902587;29;20067;-86
2022/05/29 07:52:41;;;;;;;14.88;2.55;;;12.10;99.90;;;;;;4899008;29;20050;-86
2022/05/29 07:55:07;;;;;;;8.82;2.10;;;12.10;99.90;;;;;;4884709;29;20076;-87
2022/05/29 07:57:33;;;;;;;13.40;2.20;;;12.10;99.90;;;;;;4902954;29;20044;-87
2022/05/29 07:59:58;;;;;;;12.40;2.30;;;12.00;99.90;;;;;;4897560;29;20412;-85
2022/05/29 08:02:24;;;;;;;13.00;2.50;;;12.00;99.90;;;;;;4903038;29;20051;-86
2022/05/29 08:04:50;;;;;;;10.95;2.03;;;12.00;99.90;;;;;;4896947;29;20044;-86
2022/05/29 08:07:18;;;;;;;8.90;1.90;;;11.90;99.90;;;;;;4884244;29;20055;-87
2022/05/29 08:09:44;;;;;;;10.75;2.42;;;11.90;99.90;;;;;;4901861;29;20071;-88
2022/05/29 08:12:10;;;;;;;8.63;1.90;;;11.90;99.90;;;;;;4901680;29;20040;-87
2022/05/29 08:14:36;;;;;;;8.38;1.80;;;11.90;99.90;;;;;;4894932;29;20501;-85
2022/05/29 08:17:02;;;;;;;7.78;1.95;;;11.90;99.90;;;;;;4897970;29;20051;-86
2022/05/29 08:19:27;;;;;;;7.57;1.98;;;11.90;99.90;;;;;;4888674;29;20101;-86
2022/05/29 08:21:53;;;;;;;6.88;1.67;;;12.00;99.90;;;;;;4886859;29;20040;-86
2022/05/29 08:32:34;;;;;;;8.30;1.80;;;12.40;99.90;;;;;;4890678;29;20088;-88
2022/05/29 08:35:01;;;;;;;7.30;1.80;;;12.60;99.90;;;;;;4902906;29;20056;-88
2022/05/29 08:37:28;;;;;;;9.73;1.75;;;12.60;99.90;;;;;;4898064;29;20398;-88
2022/05/29 08:39:53;;;;;;;11.43;1.55;;;12.60;99.90;;;;;;4891969;29;20055;-87
2022/05/29 08:42:20;;;;;;;9.23;1.80;;;12.60;99.90;;;;;;4902301;29;20036;-87
2022/05/29 08:44:48;;;;;;;9.35;1.80;;;12.60;99.90;;;;;;4875216;29;20080;-86
2022/05/29 08:47:16;;;;;;;8.00;1.63;;;12.50;99.90;;;;;;4897188;29;20047;-88
2022/05/29 08:49:46;;;;;;;12.00;2.03;;;12.40;99.90;;;;;;4848390;29;1157431;-87
2022/05/29 08:52:30;;;;;;;7.82;1.20;;;12.40;99.90;;;;;;4902419;29;20460;-87
2022/05/29 08:55:01;;;;;;;8.25;1.77;;;12.40;99.90;;;;;;4898374;29;20051;-87
2022/05/29 08:57:40;;;;;;;8.10;2.05;;;12.50;99.90;;;;;;4900453;29;20499;-87
2022/05/29 09:00:30;;;;;;;9.45;1.63;;;12.50;99.90;;;;;;4901601;29;20119;-88
2022/05/29 09:03:44;;;;;;;6.35;1.33;;;12.70;99.90;;;;;;4925696;29;20051;-87
2022/05/29 09:06:24;;;;;;;8.35;1.70;;;13.00;99.90;;;;;;4903578;29;20139;-87
2022/05/29 09:08:57;;;;;;;6.20;1.30;;;13.30;99.90;;;;;;4896112;29;20408;-88
2022/05/29 09:11:33;;;;;;;11.00;1.33;;;13.40;99.90;;;;;;4897963;29;20510;-87
2022/05/29 09:14:07;;;;;;;5.18;1.20;;;13.60;99.90;;;;;;4909549;29;20048;-87
2022/05/29 09:16:42;;;;;;;7.57;1.33;;;13.70;99.90;;;;;;4924425;29;20040;-87
2022/05/29 09:19:23;;;;;;;8.23;1.90;;;13.80;99.90;;;;;;4921137;29;20036;-87
2022/05/29 09:22:10;;;;;;;8.25;1.95;;;13.90;99.90;;;;;;4890525;29;20049;-86
2022/05/29 09:25:16;;;;;;;5.25;1.17;;;13.90;99.90;;;;;;4894650;29;20409;-88
2022/05/29 09:27:47;;;;;;;7.28;1.65;;;13.80;99.90;;;;;;4833791;29;20050;-88
2022/05/29 09:30:15;;;;;;;5.40;1.20;;;13.80;99.90;;;;;;4889604;29;20056;-88
2022/05/29 09:32:57;;;;;;;6.55;1.60;;;13.90;99.90;;;;;;4904204;29;20044;-87
2022/05/29 09:35:41;;;;;;;3.20;1.30;;;14.00;99.90;;;;;;4903534;29;20032;-87
2022/05/29 09:38:30;;;;;;;4.93;1.15;;;14.00;99.90;;;;;;4884318;29;20086;-87
2022/05/29 09:41:09;;;;;;;6.13;1.25;;;14.20;99.90;;;;;;4887249;29;20048;-88
2022/05/29 09:43:35;;;;;;;6.63;1.38;;;14.40;99.90;;;;;;4886634;29;20051;-87
2022/05/29 09:46:19;;;;;;;4.75;1.20;;;14.60;99.90;;;;;;4886171;29;20075;-86
2022/05/29 09:51:53;;;;;;;4.68;1.05;;;14.60;99.90;;;;;;4893772;29;20091;-88
2022/05/29 09:54:29;;;;;;;3.15;0.90;;;14.60;99.90;;;;;;4880713;29;20044;-86
2022/05/29 09:57:09;;;;;;;4.20;0.80;;;14.70;99.90;;;;;;4914631;29;20052;-86
2022/05/29 09:59:42;;;;;;;6.18;1.17;;;14.80;99.90;;;;;;4899592;29;20096;-86
2022/05/29 10:02:22;;;;;;;3.67;0.88;;;14.80;99.90;;;;;;4882310;29;20055;-87
2022/05/29 10:04:51;;;;;;;4.50;0.98;;;14.80;99.90;;;;;;4901422;29;20071;-86
2022/05/29 10:07:29;;;;;;;4.45;1.00;;;14.60;99.90;;;;;;4901812;29;20157;-86
2022/05/29 10:10:04;;;;;;;5.50;1.20;;;14.50;99.90;;;;;;4882882;29;20060;-87
2022/05/29 10:12:45;;;;;;;6.07;1.30;;;14.50;99.90;;;;;;4896633;29;20116;-87
2022/05/29 10:15:26;;;;;;;5.25;1.05;;;14.50;99.90;;;;;;4883719;29;20036;-88
2022/05/29 10:18:11;;;;;;;5.70;1.20;;;14.50;99.90;;;;;;4900065;29;20051;-87
2022/05/29 10:20:43;;;;;;;2.80;0.80;;;14.30;99.90;;;;;;4901769;29;20507;-87
2022/05/29 10:23:32;;;;;;;4.97;1.38;;;14.20;99.90;;;;;;4903790;29;20055;-87
2022/05/29 10:26:01;;;;;;;4.75;1.02;;;14.30;99.90;;;;;;4903674;29;20044;-86
2022/05/29 10:28:36;;;;;;;4.50;1.00;;;14.40;99.90;;;;;;4916004;29;20447;-89
2022/05/29 10:31:07;;;;;;;3.92;1.13;;;14.40;99.90;;;;;;4904785;29;20111;-87
2022/05/29 10:33:34;;;;;;;4.25;1.40;;;14.50;99.90;;;;;;4905280;29;20100;-88
2022/05/29 10:36:08;;;;;;;5.22;1.02;;;14.60;99.90;;;;;;4877947;29;20044;-88
2022/05/29 10:38:35;;;;;;;8.05;1.23;;;14.60;99.90;;;;;;4900098;29;20050;-88
2022/05/29 10:41:03;;;;;;;4.97;1.08;;;14.60;99.90;;;;;;4874875;29;20514;-86
2022/05/29 10:43:48;;;;;;;5.10;1.00;;;14.60;99.90;;;;;;4908526;29;20131;-87
2022/05/29 10:46:15;;;;;;;4.10;0.88;;;14.60;99.90;;;;;;4904374;29;20052;-87
2022/05/29 10:48:50;;;;;;;2.45;0.88;;;14.40;99.90;;;;;;4912360;29;20052;-89
2022/05/29 10:51:25;;;;;;;5.38;0.95;;;14.40;99.90;;;;;;4881083;29;20493;-87
2022/05/29 10:54:05;;;;;;;4.85;1.30;;;14.40;99.90;;;;;;4905672;29;20047;-87
2022/05/29 10:56:49;;;;;;;3.50;1.20;;;14.40;99.90;;;;;;4902925;29;20055;-86
2022/05/29 10:59:42;;;;;;;5.65;1.27;;;14.50;99.90;;;;;;4888791;29;20136;-86
2022/05/29 11:05:24;;;;;;;6.63;1.50;;;14.40;99.90;;;;;;4908629;29;20055;-88
2022/05/29 11:08:01;;;;;;;8.77;1.50;;;14.20;99.90;;;;;;4889016;29;20046;-88
2022/05/29 11:10:33;;;;;;;6.57;1.55;;;14.00;99.90;;;;;;4904607;29;20384;-88
2022/05/29 11:13:23;;;;;;;4.80;1.25;;;13.90;99.90;;;;;;4911042;29;20040;-86
2022/05/29 11:16:01;;;;;;;7.43;1.35;;;13.80;99.90;;;;;;4889633;29;20122;-88
2022/05/29 11:18:56;;;;;;;6.53;1.20;;;13.60;99.90;;;;;;4905980;29;20492;-88
2022/05/29 11:21:37;;;;;;;4.75;1.00;;;13.40;99.90;;;;;;4886625;29;20090;-88
2022/05/29 11:24:29;;;;;;;4.35;1.00;;;13.40;99.90;;;;;;4917559;29;20080;-87
2022/05/29 11:27:18;;;;;;;3.95;1.00;;;13.50;99.90;;;;;;4889398;29;20040;-87
2022/05/29 11:29:58;;;;;;;4.97;1.10;;;13.60;99.90;;;;;;4902658;29;20466;-87
2022/05/29 11:32:37;;;;;;;3.92;1.17;;;13.70;99.90;;;;;;4917066;29;20070;-88
2022/05/29 11:35:28;;;;;;;5.03;1.20;;;13.90;99.90;;;;;;4887070;29;20044;-88
2022/05/29 11:38:25;;;;;;;5.43;1.40;;;14.10;99.90;;;;;;4891331;29;20116;-87
2022/05/29 11:40:58;;;;;;;5.78;1.35;;;14.20;99.90;;;;;;4880751;29;20515;-87
2022/05/29 11:43:36;;;;;;;4.53;1.17;;;14.30;99.90;;;;;;4906774;29;20056;-88
2022/05/29 11:51:56;;;;;;;7.60;1.50;;;14.20;99.90;;;;;;4894418;29;20059;-87
2022/05/29 11:54:41;;;;;;;7.40;1.50;;;13.90;99.90;;;;;;4884139;29;20048;-88
2022/05/29 11:57:39;;;;;;;6.93;1.50;;;13.90;99.90;;;;;;4898632;29;20054;-87
2022/05/29 12:00:25;;;;;;;6.70;1.95;;;13.80;99.90;;;;;;4897066;29;20067;-88
2022/05/29 12:02:56;;;;;;;;;;;13.90;99.90;;;;;;4884168;29;20047;-87
2022/05/29 12:05:31;;;;;;;5.95;1.20;;;13.90;99.90;;;;;;4910318;29;19938;-88
2022/05/29 12:08:15;;;;;;;6.60;1.48;;;14.00;99.90;;;;;;4910410;29;20095;-88
2022/05/29 12:10:55;;;;;;;5.22;1.00;;;14.10;99.90;;;;;;4900873;29;20040;-88
2022/05/29 12:13:27;;;;;;;3.83;0.90;;;14.20;99.90;;;;;;4890026;29;20087;-87
2022/05/29 12:16:02;;;;;;;7.18;1.40;;;14.30;99.90;;;;;;4901730;29;20127;-88
2022/05/29 12:18:46;;;;;;;4.80;1.35;;;14.20;99.90;;;;;;4899606;29;20040;-88
2022/05/29 12:21:15;;;;;;;5.28;1.30;;;14.20;99.90;;;;;;4900057;29;20044;-88
2022/05/29 12:23:52;;;;;;;6.35;1.70;;;14.20;99.90;;;;;;4899418;29;20131;-88
2022/05/29 12:26:28;;;;;;;8.35;1.20;;;14.20;99.90;;;;;;4901183;29;20054;-88
2022/05/29 12:28:57;;;;;;;;;;;14.10;99.90;;;;;;4905200;29;20453;-87
2022/05/29 12:31:43;;;;;;;4.75;1.23;;;14.00;99.90;;;;;;4902641;29;20351;-88
2022/05/29 12:34:16;;;;;;;;;;;14.00;99.90;;;;;;4893102;29;20048;-88
2022/05/29 12:36:54;;;;;;;4.68;1.15;;;13.90;99.90;;;;;;4902975;29;19919;-87
2022/05/29 12:39:47;;;;;;;3.63;1.10;;;13.80;99.90;;;;;;4878805;29;20408;-88
2022/05/29 12:42:26;;;;;;;3.05;1.17;;;13.70;99.90;;;;;;4882902;29;20036;-87
2022/05/29 12:45:06;;;;;;;6.07;1.17;;;13.70;99.90;;;;;;4889841;29;20099;-87
2022/05/29 12:47:50;;;;;;;3.03;1.20;;;13.70;99.90;;;;;;4912580;29;20104;-88
2022/05/29 12:50:51;;;;;;;5.82;1.27;;;13.80;99.90;;;;;;4880365;29;20055;-88
2022/05/29 12:53:58;;;;;;;4.15;1.20;;;13.90;99.90;;;;;;4885942;29;20104;-88
2022/05/29 12:56:26;;;;;;;4.20;1.30;;;14.00;99.90;;;;;;4845011;29;20053;-87
2022/05/29 12:59:23;;;;;;;5.43;1.23;;;14.00;99.90;;;;;;4874366;29;20048;-88
2022/05/29 13:02:03;;;;;;;4.40;1.50;;;14.00;99.90;;;;;;4882835;29;20040;-88
2022/05/29 13:04:36;;;;;;;5.93;1.23;;;14.10;99.90;;;;;;4878568;29;20147;-88
2022/05/29 13:07:22;;;;;;;5.28;1.35;;;14.10;99.90;;;;;;4886234;29;20055;-88
2022/05/29 13:10:16;;;;;;;8.38;1.50;;;14.20;99.90;;;;;;4872317;29;20485;-86
2022/05/29 13:12:51;;;;;;;6.65;1.60;;;14.10;99.90;;;;;;4882051;29;20131;-88
2022/05/29 13:15:35;;;;;;;5.32;1.10;;;14.00;99.90;;;;;;4888498;29;20087;-88
2022/05/29 13:18:03;;;;;;;3.35;1.13;;;14.00;99.90;;;;;;4871543;29;20048;-88
2022/05/29 13:20:29;;;;;;;5.20;1.00;;;14.10;99.90;;;;;;4864623;29;20051;-87
2022/05/29 13:23:02;;;;;;;4.45;1.30;;;14.10;99.90;;;;;;4861362;29;20051;-87
2022/05/29 13:25:27;;;;;;;5.95;1.02;;;14.20;99.90;;;;;;4866972;29;20051;-88
2022/05/29 13:27:56;;;;;;;7.97;1.33;;;14.30;99.90;;;;;;4877059;29;20035;-88
2022/05/29 13:30:37;;;;;;;6.50;1.30;;;14.40;99.90;;;;;;4874502;29;20040;-88
2022/05/29 13:33:28;;;;;;;5.10;1.10;;;14.40;99.90;;;;;;4869743;29;20138;-87
2022/05/29 13:35:58;;;;;;;7.10;1.58;;;14.50;99.90;;;;;;4884502;29;20068;-88
2022/05/29 13:38:46;;;;;;;8.07;1.80;;;14.50;99.90;;;;;;4876540;29;20108;-88
2022/05/29 13:41:54;;;;;;;4.95;1.00;;;14.50;99.90;;;;;;4896358;29;20104;-88
2022/05/29 13:44:34;;;;;;;6.95;1.35;;;14.40;99.90;;;;;;4873758;29;20048;-88
2022/05/29 13:47:18;;;;;;;5.88;1.52;;;14.30;99.90;;;;;;4888037;29;20053;-88
2022/05/29 13:49:48;;;;;;;7.93;1.73;;;14.10;99.90;;;;;;4896501;29;20066;-89
2022/05/29 13:52:31;;;;;;;9.73;1.95;;;13.80;99.90;;;;;;4887043;29;20119;-88
2022/05/29 13:55:16;;;;;;;7.25;2.00;;;13.50;99.90;;;;;;4902747;29;20508;-88
2022/05/29 14:03:58;;;;;;;7.78;1.50;;;13.10;99.90;;;;;;4904046;29;20055;-87